Terminal Aerodrome Forecast
Issued by NWS

Home | Current Version | Previous Version | Text Only | Print | Product List | Glossary On
Versions: 1 2 3 4 5 6 7 8 9 10 11 12 13 14 15 16
000
FTUS45 KABQ 092300
TAFGUP
TAF
KGUP 092328Z 1000/1024 26010KT P6SM VCTS SCT060CB BKN100
      TEMPO 1000/1002 VRB20G30KT
     FM100400 VRB06KT P6SM VCSH BKN100
     FM101100 VRB06KT P6SM BKN140
     FM101600 23007KT P6SM FEW070 SCT150
     FM102000 26010KT P6SM VCTS SCT080CB SCT150=

USA.gov is the U.S. government's official web portal to all federal, state and local government web resources and services.